This is the latest recevied weather packets stored in our database for station/object PA3FNT-13. If no packets are shown the sender has not sent any weather packets the latest 10 day(s).
| Time | Temp. | Humidity | Pressure | Rain* | Wind** | Luminosity | Snow |
|---|---|---|---|---|---|---|---|
| 1778006407 | 28.33° C | 25% | 1011.2 hPa | - | - | - | - |
| 1778006349 | 28.33° C | 25% | 1011.2 hPa | - | - | - | - |
| 1778005449 | 28.33° C | 25% | 1011.4 hPa | - | - | - | - |
| 1778004549 | 28.33° C | 25% | 1011.4 hPa | - | - | - | - |
| 1778003649 | 28.89° C | 25% | 1011.3 hPa | - | - | - | - |
| 1778002798 | 28.89° C | 24% | 1011.5 hPa | - | - | - | - |
| 1778002748 | 28.89° C | 24% | 1011.5 hPa | - | - | - | - |
| 1778001848 | 30° C | 24% | 1011.3 hPa | - | - | - | - |
| 1778000948 | 30° C | 24% | 1011.3 hPa | - | - | - | - |
| 1778000079 | 28.89° C | 25% | 1011.4 hPa | - | - | - | - |
| 1778000048 | 28.89° C | 25% | 1011.4 hPa | - | - | - | - |
| 1777999179 | 28.89° C | 26% | 1011.4 hPa | - | - | - | - |
| 1777999148 | 28.89° C | 26% | 1011.4 hPa | - | - | - | - |
| 1777998248 | 28.33° C | 26% | 1011.4 hPa | - | - | - | - |
| 1777997380 | 28.33° C | 26% | 1011.5 hPa | - | - | - | - |
| 1777997347 | 28.33° C | 26% | 1011.5 hPa | - | - | - | - |
| 1777996489 | 28.33° C | 26% | 1011.5 hPa | - | - | - | - |
| 1777996447 | 28.33° C | 26% | 1011.5 hPa | - | - | - | - |
| 1777995547 | 28.89° C | 25% | 1011.5 hPa | - | - | - | - |
| 1777994647 | 28.89° C | 25% | 1011.5 hPa | - | - | - | - |
| 1777993747 | 29.44° C | 24% | 1011.5 hPa | - | - | - | - |
| 1777992887 | 29.44° C | 25% | 1011.5 hPa | - | - | - | - |
| 1777992847 | 29.44° C | 25% | 1011.5 hPa | - | - | - | - |
| 1777992072 | 28.89° C | 25% | 1011.5 hPa | - | - | - | - |
| 1777991946 | 28.89° C | 25% | 1011.5 hPa | - | - | - | - |
* Rain since midnight (hover to see other rain measurements)
** Current wind speed in m/s (hover to see current wind gust speed)